createdAt,value
2023-04-16T00:00:56.975Z,35.83
2023-04-16T00:03:25.130Z,31.33
2023-04-16T00:05:55.696Z,31.93
2023-04-16T00:08:25.629Z,31.43
2023-04-16T00:10:54.499Z,25.13
2023-04-16T00:13:22.614Z,24.97
2023-04-16T00:15:50.556Z,28.70
2023-04-16T00:18:18.310Z,25.77
2023-04-16T00:20:46.168Z,28.07
2023-04-16T00:23:13.876Z,27.50
2023-04-16T00:25:43.046Z,27.93
2023-04-16T00:28:11.224Z,25.90
2023-04-16T00:30:39.138Z,26.50
2023-04-16T00:33:06.986Z,31.70
2023-04-16T00:35:35.850Z,29.67
2023-04-16T00:38:03.938Z,25.80
2023-04-16T00:40:32.008Z,32.73
2023-04-16T00:43:01.208Z,25.60
2023-04-16T00:45:28.950Z,27.87
2023-04-16T00:47:59.297Z,27.23
2023-04-16T00:50:28.595Z,27.57
2023-04-16T00:52:58.035Z,29.40
2023-04-16T00:55:26.054Z,29.73
2023-04-16T00:57:54.493Z,31.70
2023-04-16T01:00:23.849Z,32.30
2023-04-16T01:02:51.650Z,36.00
2023-04-16T01:05:20.391Z,34.57
2023-04-16T01:07:48.063Z,33.03
2023-04-16T01:10:15.936Z,36.37
2023-04-16T01:12:43.864Z,36.43
2023-04-16T01:15:12.277Z,41.27
2023-04-16T01:17:41.810Z,43.33
2023-04-16T01:20:10.280Z,40.80
2023-04-16T01:22:39.316Z,39.33
2023-04-16T01:25:07.405Z,36.70
2023-04-16T01:27:35.071Z,36.90
2023-04-16T01:30:02.912Z,37.43
2023-04-16T01:32:41.444Z,34.73
2023-04-16T01:35:09.254Z,38.17
2023-04-16T01:37:36.961Z,37.13
2023-04-16T01:40:07.085Z,40.67
2023-04-16T01:42:35.208Z,46.07
2023-04-16T01:45:03.154Z,39.63
2023-04-16T01:47:30.879Z,45.77
2023-04-16T01:50:00.514Z,47.37
2023-04-16T01:52:28.417Z,47.43
2023-04-16T01:54:56.612Z,52.20
2023-04-16T01:57:25.966Z,49.53
2023-04-16T01:59:54.225Z,48.43
2023-04-16T02:02:27.885Z,51.90
2023-04-16T02:04:57.309Z,47.87
2023-04-16T02:07:25.722Z,58.97
2023-04-16T02:09:53.460Z,51.10
2023-04-16T02:12:21.645Z,50.17
2023-04-16T02:14:50.826Z,46.17
2023-04-16T02:17:19.597Z,46.60
2023-04-16T02:19:50.400Z,43.83
2023-04-16T02:22:19.238Z,45.63
2023-04-16T02:24:47.142Z,48.50
2023-04-16T02:27:14.919Z,38.53
2023-04-16T02:29:43.036Z,42.30
2023-04-16T02:32:16.999Z,38.13
2023-04-16T02:34:46.727Z,42.70
2023-04-16T02:37:16.427Z,41.47
2023-04-16T02:39:45.001Z,37.70
2023-04-16T02:42:15.627Z,39.13
2023-04-16T02:44:43.402Z,38.93
2023-04-16T02:47:11.161Z,31.53
2023-04-16T02:49:40.602Z,37.53
2023-04-16T02:52:08.395Z,32.17
2023-04-16T02:54:36.186Z,30.37
2023-04-16T02:57:04.353Z,32.57
2023-04-16T02:59:32.418Z,35.73
2023-04-16T03:02:00.570Z,41.37
2023-04-16T03:04:28.389Z,41.63
2023-04-16T03:06:57.473Z,34.63
2023-04-16T03:09:25.268Z,37.80
2023-04-16T03:11:53.069Z,37.03
2023-04-16T03:14:21.411Z,37.83
2023-04-16T03:16:49.181Z,32.93
2023-04-16T03:19:16.993Z,38.47
2023-04-16T03:21:44.690Z,39.23
2023-04-16T03:24:13.747Z,38.37
2023-04-16T03:26:41.517Z,37.13
2023-04-16T03:29:10.518Z,37.13
2023-04-16T03:31:38.762Z,32.13
2023-04-16T03:34:06.850Z,36.83
2023-04-16T03:36:35.494Z,31.27
2023-04-16T03:39:03.302Z,36.63
2023-04-16T03:41:33.050Z,34.83
2023-04-16T03:44:01.585Z,36.07
2023-04-16T03:46:31.029Z,38.63
2023-04-16T03:48:58.740Z,33.57
2023-04-16T03:51:27.078Z,36.23
2023-04-16T03:53:54.977Z,39.17
2023-04-16T03:56:22.921Z,37.13
2023-04-16T03:58:53.763Z,35.53
2023-04-16T04:01:21.687Z,39.23
2023-04-16T04:03:50.465Z,41.37
2023-04-16T04:06:18.528Z,39.47
2023-04-16T04:08:46.698Z,42.80
2023-04-16T04:11:15.758Z,39.77
2023-04-16T04:13:44.801Z,40.73
2023-04-16T04:16:14.453Z,40.63
2023-04-16T04:18:44.665Z,39.93
2023-04-16T04:21:12.759Z,41.80
2023-04-16T04:23:41.575Z,40.33
2023-04-16T04:26:10.068Z,43.40
2023-04-16T04:28:37.876Z,48.67
2023-04-16T04:31:06.208Z,49.93
2023-04-16T04:33:35.400Z,47.67
2023-04-16T04:36:03.486Z,49.43
2023-04-16T04:38:32.138Z,48.50
2023-04-16T04:41:00.266Z,54.27
2023-04-16T04:43:30.795Z,50.30
2023-04-16T04:45:58.497Z,48.37
2023-04-16T04:48:28.416Z,45.00
2023-04-16T04:50:57.772Z,44.37
2023-04-16T04:53:25.973Z,48.10
2023-04-16T04:55:57.488Z,42.00
2023-04-16T04:58:33.916Z,42.00
2023-04-16T05:01:01.767Z,38.00
2023-04-16T05:03:30.140Z,38.30
2023-04-16T05:05:59.246Z,44.53
2023-04-16T05:08:27.001Z,40.33
2023-04-16T05:10:54.861Z,39.77
2023-04-16T05:13:22.718Z,41.60
2023-04-16T05:15:50.391Z,40.43
2023-04-16T05:18:18.070Z,42.03
2023-04-16T05:20:46.087Z,40.47
2023-04-16T05:23:15.594Z,36.90
2023-04-16T05:25:43.241Z,41.57
2023-04-16T05:28:11.065Z,38.97
2023-04-16T05:30:39.284Z,41.90
2023-04-16T05:33:07.047Z,37.90
2023-04-16T05:35:35.053Z,35.50
2023-04-16T05:38:04.679Z,38.43
2023-04-16T05:40:34.128Z,35.53
2023-04-16T05:43:01.891Z,36.60
2023-04-16T05:45:29.689Z,33.97
2023-04-16T05:47:57.599Z,37.23
2023-04-16T05:50:25.390Z,37.07
2023-04-16T05:52:53.333Z,35.53
2023-04-16T05:55:21.052Z,38.77
2023-04-16T05:57:50.147Z,37.23
2023-04-16T06:00:18.143Z,39.37
2023-04-16T06:02:46.038Z,37.40
2023-04-16T06:05:13.918Z,41.60
2023-04-16T06:07:41.608Z,36.80
2023-04-16T06:10:10.247Z,40.50
2023-04-16T06:12:38.265Z,40.90
2023-04-16T06:15:09.134Z,37.07
2023-04-16T06:17:37.269Z,36.53
2023-04-16T06:20:05.907Z,37.73
2023-04-16T06:22:33.950Z,38.10
2023-04-16T06:25:01.732Z,38.93
2023-04-16T06:27:29.641Z,39.20
2023-04-16T06:29:58.084Z,37.67
2023-04-16T06:32:27.324Z,36.13
2023-04-16T06:34:56.229Z,39.13
2023-04-16T06:37:23.985Z,33.90
2023-04-16T06:39:51.713Z,35.80
2023-04-16T06:42:21.693Z,39.77
2023-04-16T06:44:49.377Z,37.63
2023-04-16T06:47:17.525Z,36.80
2023-04-16T06:49:46.989Z,32.03
2023-04-16T06:52:15.076Z,35.33
2023-04-16T06:54:42.790Z,36.20
2023-04-16T06:57:11.432Z,36.10
2023-04-16T06:59:39.531Z,36.07
2023-04-16T07:02:09.221Z,33.97
2023-04-16T07:04:36.939Z,41.83
2023-04-16T07:07:06.125Z,38.20
2023-04-16T07:09:33.987Z,35.93
2023-04-16T07:12:01.987Z,37.40
2023-04-16T07:14:30.351Z,37.03
2023-04-16T07:16:58.471Z,39.17
2023-04-16T07:19:30.408Z,32.60
2023-04-16T07:21:58.202Z,35.10
2023-04-16T07:24:27.541Z,37.50
2023-04-16T07:26:55.779Z,36.63
2023-04-16T07:29:23.503Z,35.20
2023-04-16T07:31:51.244Z,36.90
2023-04-16T07:34:19.298Z,39.60
2023-04-16T07:36:47.413Z,34.23
2023-04-16T07:39:15.148Z,32.90
2023-04-16T07:41:45.443Z,38.67
2023-04-16T07:44:13.178Z,37.00
2023-04-16T07:46:46.951Z,34.50
2023-04-16T07:49:15.624Z,35.57
2023-04-16T07:51:43.571Z,36.10
2023-04-16T07:54:11.797Z,33.93
2023-04-16T07:56:39.881Z,34.17
2023-04-16T07:59:21.857Z,32.87
2023-04-16T08:01:51.394Z,35.73
2023-04-16T08:04:24.423Z,38.10
2023-04-16T08:06:52.977Z,34.37
2023-04-16T08:09:21.071Z,31.20
2023-04-16T08:11:50.208Z,34.30
2023-04-16T08:14:19.857Z,33.57
2023-04-16T08:16:47.795Z,32.53
2023-04-16T08:19:15.823Z,32.07
2023-04-16T08:21:43.688Z,35.17
2023-04-16T08:24:11.973Z,31.33
2023-04-16T08:26:39.741Z,32.93
2023-04-16T08:29:07.689Z,30.97
2023-04-16T08:31:37.596Z,31.93
2023-04-16T08:34:05.726Z,35.27
2023-04-16T08:36:33.475Z,33.20
2023-04-16T08:39:01.189Z,33.97
2023-04-16T08:41:32.371Z,36.67
2023-04-16T08:44:04.001Z,33.33
2023-04-16T08:46:32.859Z,39.13
2023-04-16T08:49:04.127Z,31.00
2023-04-16T08:51:36.079Z,32.07
2023-04-16T08:54:06.231Z,31.37
2023-04-16T08:56:38.414Z,33.00
2023-04-16T08:59:06.482Z,31.30
2023-04-16T09:01:34.753Z,29.93
2023-04-16T09:04:04.118Z,28.73
2023-04-16T09:06:34.077Z,31.37
2023-04-16T09:09:04.840Z,34.37
2023-04-16T09:11:33.350Z,33.57
2023-04-16T09:14:01.826Z,31.10
2023-04-16T09:16:34.558Z,31.23
2023-04-16T09:19:03.908Z,33.47
2023-04-16T09:21:32.233Z,28.60
2023-04-16T09:24:01.064Z,34.43
2023-04-16T09:26:29.389Z,28.93
2023-04-16T09:28:57.215Z,32.93
2023-04-16T09:31:25.304Z,29.23
2023-04-16T09:34:05.995Z,27.77
2023-04-16T09:36:34.700Z,28.30
2023-04-16T09:39:03.722Z,30.77
2023-04-16T09:41:35.894Z,29.53
2023-04-16T09:44:05.525Z,30.30
2023-04-16T09:46:36.659Z,29.23
2023-04-16T09:49:10.646Z,31.17
2023-04-16T09:51:39.810Z,26.40
2023-04-16T09:54:08.626Z,27.63
2023-04-16T09:56:42.649Z,27.77
2023-04-16T09:59:18.663Z,28.70
2023-04-16T10:01:49.323Z,24.27
2023-04-16T10:04:22.457Z,26.50
2023-04-16T10:07:04.453Z,24.80
2023-04-16T10:09:33.960Z,25.00
2023-04-16T10:12:02.885Z,24.10
2023-04-16T10:14:34.959Z,23.07
2023-04-16T10:17:04.713Z,23.07
2023-04-16T10:19:35.571Z,21.53
2023-04-16T10:22:04.744Z,22.73
2023-04-16T10:24:34.342Z,21.53
2023-04-16T10:27:03.172Z,22.70
2023-04-16T10:29:33.241Z,25.03
2023-04-16T10:32:03.165Z,24.67
2023-04-16T10:34:35.282Z,26.30
2023-04-16T10:37:05.276Z,28.90
2023-04-16T10:39:38.494Z,26.33
2023-04-16T10:42:11.823Z,26.87
2023-04-16T10:44:43.633Z,23.83
2023-04-16T10:47:16.874Z,20.00
2023-04-16T10:49:45.177Z,22.13
2023-04-16T10:52:17.517Z,20.93
2023-04-16T10:54:45.938Z,21.97
2023-04-16T10:57:18.706Z,22.53
2023-04-16T11:09:57.506Z,22.87
2023-04-16T11:12:27.781Z,23.10
2023-04-16T11:15:00.525Z,19.83
2023-04-16T11:17:31.072Z,20.67
2023-04-16T11:19:59.112Z,20.90
2023-04-16T11:22:28.360Z,18.73
2023-04-16T11:24:58.286Z,15.10
2023-04-16T11:27:26.813Z,20.60
2023-04-16T11:30:04.133Z,17.47
2023-04-16T11:32:33.159Z,17.33
2023-04-16T11:35:03.628Z,17.33
2023-04-16T11:37:35.742Z,20.30
2023-04-16T11:40:08.136Z,17.63
2023-04-16T11:42:37.292Z,17.50
2023-04-16T11:45:06.116Z,16.97
2023-04-16T11:47:43.109Z,18.80
2023-04-16T11:50:22.333Z,17.33
2023-04-16T11:52:51.225Z,17.60
2023-04-16T11:55:21.260Z,18.17
2023-04-16T11:57:49.763Z,20.00
2023-04-16T12:00:23.678Z,19.03
2023-04-16T12:02:54.328Z,17.03
2023-04-16T12:05:31.236Z,19.47
2023-04-16T12:08:00.643Z,18.10
2023-04-16T12:10:30.968Z,19.23
2023-04-16T12:13:12.109Z,17.40
2023-04-16T12:15:47.755Z,18.53
2023-04-16T12:18:16.161Z,17.33
2023-04-16T12:20:45.661Z,18.27
2023-04-16T12:23:24.410Z,18.27
2023-04-16T12:25:55.182Z,17.37
2023-04-16T12:28:31.215Z,16.70
2023-04-16T12:30:59.202Z,16.53
2023-04-16T12:33:27.382Z,19.00
2023-04-16T12:35:55.195Z,17.77
2023-04-16T12:38:24.653Z,17.17
2023-04-16T12:40:56.699Z,18.17
2023-04-16T12:43:24.918Z,17.67
2023-04-16T12:45:52.828Z,19.53
2023-04-16T12:48:20.687Z,19.17
2023-04-16T12:50:48.483Z,18.97
2023-04-16T12:53:16.451Z,18.13
2023-04-16T12:55:45.301Z,18.03
2023-04-16T12:58:14.461Z,16.97
2023-04-16T13:00:42.277Z,21.07
2023-04-16T13:03:10.341Z,19.53
2023-04-16T13:05:38.333Z,19.43
2023-04-16T13:08:06.428Z,18.93
2023-04-16T13:10:34.270Z,19.97
2023-04-16T13:13:02.113Z,20.40
2023-04-16T13:15:31.352Z,19.13
2023-04-16T13:17:59.260Z,21.70
2023-04-16T13:20:27.212Z,20.20
2023-04-16T13:22:55.268Z,19.07
2023-04-16T13:25:23.221Z,18.33
2023-04-16T13:27:51.006Z,19.70
2023-04-16T13:30:19.224Z,22.53
2023-04-16T13:32:48.452Z,20.87
2023-04-16T13:35:16.557Z,20.87
2023-04-16T13:37:44.355Z,20.57
2023-04-16T13:40:12.284Z,20.60
2023-04-16T13:42:40.675Z,20.90
2023-04-16T13:45:09.707Z,22.50
2023-04-16T13:47:37.730Z,20.90
2023-04-16T13:50:07.845Z,18.93
2023-04-16T13:52:36.406Z,20.50
2023-04-16T13:55:04.529Z,20.30
2023-04-16T13:57:32.290Z,22.50
2023-04-16T14:00:00.234Z,19.40
2023-04-16T14:02:28.704Z,19.90
2023-04-16T14:04:56.591Z,19.77
2023-04-16T14:07:27.220Z,19.10
2023-04-16T14:09:55.374Z,21.20
2023-04-16T14:12:23.173Z,20.67
2023-04-16T14:14:51.205Z,22.20
2023-04-16T14:17:19.038Z,17.93
2023-04-16T14:19:47.247Z,17.87
2023-04-16T14:22:17.750Z,18.17
2023-04-16T14:24:46.954Z,19.53
2023-04-16T14:27:15.112Z,18.23
2023-04-16T14:29:43.976Z,19.90
2023-04-16T14:32:11.743Z,21.90
2023-04-16T14:34:39.690Z,17.70
2023-04-16T14:37:08.061Z,19.10
2023-04-16T14:39:41.697Z,17.37
2023-04-16T14:42:11.113Z,18.87
2023-04-16T14:44:39.320Z,19.77
2023-04-16T14:47:08.587Z,21.43
2023-04-16T14:49:36.460Z,17.63
2023-04-16T14:52:05.719Z,17.00
2023-04-16T14:54:36.504Z,18.13
2023-04-16T14:57:04.458Z,15.73
2023-04-16T14:59:33.750Z,19.47
2023-04-16T15:02:10.456Z,15.63
2023-04-16T15:04:39.792Z,17.67
2023-04-16T15:07:12.533Z,17.63
2023-04-16T15:09:40.584Z,15.70
2023-04-16T15:12:09.170Z,15.60
2023-04-16T15:14:38.834Z,18.77
2023-04-16T15:17:06.892Z,17.57
2023-04-16T15:19:34.788Z,21.30
2023-04-16T15:22:02.805Z,16.17
2023-04-16T15:24:30.821Z,14.57
2023-04-16T15:27:02.230Z,15.53
2023-04-16T15:29:32.705Z,16.80
2023-04-16T15:32:04.344Z,17.27
2023-04-16T15:34:32.047Z,14.40
2023-04-16T15:37:09.687Z,17.43
2023-04-16T15:39:37.499Z,13.87
2023-04-16T15:42:07.444Z,14.50
2023-04-16T15:44:36.305Z,16.63
2023-04-16T15:47:06.448Z,14.13
2023-04-16T15:49:34.334Z,15.67
2023-04-16T15:52:02.374Z,14.10
2023-04-16T15:54:30.541Z,15.50
2023-04-16T15:56:58.852Z,14.47
2023-04-16T15:59:26.968Z,14.97
2023-04-16T16:01:55.026Z,12.97
2023-04-16T16:04:26.584Z,15.63
2023-04-16T16:06:56.341Z,18.27
2023-04-16T16:09:26.764Z,23.57
2023-04-16T16:11:55.119Z,27.23
2023-04-16T16:14:23.237Z,30.40
2023-04-16T16:16:51.153Z,27.63
2023-04-16T16:19:18.972Z,30.17
2023-04-16T16:21:48.289Z,31.53
2023-04-16T16:24:16.319Z,27.20
2023-04-16T16:26:44.103Z,24.63
2023-04-16T16:29:12.104Z,28.13
2023-04-16T16:31:39.904Z,27.43
2023-04-16T16:34:09.882Z,30.23
2023-04-16T16:36:40.817Z,27.23
2023-04-16T16:39:10.661Z,28.27
2023-04-16T16:41:41.977Z,30.63
2023-04-16T16:44:10.300Z,26.13
2023-04-16T16:46:38.524Z,30.10
2023-04-16T16:49:07.009Z,29.57
2023-04-16T16:51:35.003Z,31.03
2023-04-16T16:54:02.837Z,33.67
2023-04-16T16:56:32.085Z,33.37
2023-04-16T16:59:00.011Z,35.37
2023-04-16T17:01:27.926Z,35.33
2023-04-16T17:03:56.182Z,36.17
2023-04-16T17:06:25.304Z,34.47
2023-04-16T17:08:53.215Z,39.10
2023-04-16T17:11:21.192Z,40.10
2023-04-16T17:13:50.599Z,38.33
2023-04-16T17:16:18.731Z,39.00
2023-04-16T17:18:46.781Z,31.80
2023-04-16T17:21:16.533Z,41.53
2023-04-16T17:23:44.780Z,35.53
2023-04-16T17:26:16.086Z,36.93
2023-04-16T17:28:43.999Z,36.77
2023-04-16T17:31:14.951Z,35.33
2023-04-16T17:33:43.371Z,43.17
2023-04-16T17:36:11.230Z,39.70
2023-04-16T17:38:39.083Z,36.40
2023-04-16T17:41:07.466Z,37.40
2023-04-16T17:43:35.963Z,33.60
2023-04-16T17:46:03.807Z,35.80
2023-04-16T17:48:33.171Z,32.93
2023-04-16T17:51:01.155Z,34.27
2023-04-16T17:53:28.986Z,36.13
2023-04-16T17:55:57.200Z,35.00
2023-04-16T17:58:26.446Z,34.23
2023-04-16T18:00:54.298Z,40.10
2023-04-16T18:03:23.451Z,36.33
2023-04-16T18:05:53.036Z,38.40
2023-04-16T18:08:21.068Z,37.90
2023-04-16T18:10:48.979Z,32.27
2023-04-16T18:13:16.920Z,34.60
2023-04-16T18:15:44.873Z,31.93
2023-04-16T18:18:12.951Z,33.50
2023-04-16T18:20:41.406Z,36.13
2023-04-16T18:23:10.531Z,28.43
2023-04-16T18:28:07.509Z,28.23
2023-04-16T18:30:35.565Z,29.57
2023-04-16T18:35:34.172Z,24.57
2023-04-16T18:38:02.320Z,28.53
2023-04-16T18:40:35.062Z,26.97
2023-04-16T18:43:03.006Z,28.03
2023-04-16T18:45:31.348Z,27.70
2023-04-16T18:47:59.703Z,32.30
2023-04-16T18:50:27.576Z,30.87
2023-04-16T18:52:55.608Z,29.07
2023-04-16T18:55:23.684Z,30.27
2023-04-16T18:57:53.150Z,31.03
2023-04-16T19:00:21.155Z,32.07
2023-04-16T19:05:34.613Z,29.27
2023-04-16T19:08:02.389Z,28.47
2023-04-16T19:10:30.536Z,28.60
2023-04-16T19:12:59.756Z,25.13
2023-04-16T19:15:29.218Z,30.50
2023-04-16T19:17:58.893Z,30.33
2023-04-16T19:20:27.204Z,27.73
2023-04-16T19:22:55.494Z,27.53
2023-04-16T19:25:23.293Z,32.47
2023-04-16T19:27:51.306Z,29.57
2023-04-16T19:30:20.680Z,23.63
2023-04-16T19:32:48.527Z,26.53
2023-04-16T19:35:16.535Z,20.77
2023-04-16T19:37:44.365Z,26.97
2023-04-16T19:40:12.716Z,25.50
2023-04-16T19:42:40.561Z,24.23
2023-04-16T19:45:09.941Z,23.50
2023-04-16T19:47:39.341Z,23.93
2023-04-16T19:50:08.196Z,26.50
2023-04-16T19:52:38.764Z,24.77
2023-04-16T19:55:07.516Z,26.13
2023-04-16T19:57:35.413Z,28.60
2023-04-16T20:00:03.735Z,22.80
2023-04-16T20:02:32.207Z,26.73
2023-04-16T20:05:03.311Z,30.60
2023-04-16T20:07:31.106Z,27.07
2023-04-16T20:09:58.842Z,25.90
2023-04-16T20:12:26.607Z,27.93
2023-04-16T20:14:54.502Z,24.07
2023-04-16T20:17:22.529Z,22.77
2023-04-16T20:19:51.127Z,32.03
2023-04-16T20:22:20.408Z,33.67
2023-04-16T20:24:48.324Z,24.27
2023-04-16T20:27:16.783Z,28.33
2023-04-16T20:29:44.985Z,29.30
2023-04-16T20:32:12.725Z,28.70
2023-04-16T20:34:40.575Z,28.73
2023-04-16T20:37:08.326Z,27.23
2023-04-16T20:39:37.413Z,29.03
2023-04-16T20:42:10.227Z,30.30
2023-04-16T20:44:41.196Z,29.13
2023-04-16T20:47:09.202Z,27.53
2023-04-16T20:49:38.417Z,33.83
2023-04-16T20:52:07.428Z,32.73
2023-04-16T20:54:35.361Z,29.60
2023-04-16T20:57:05.093Z,32.43
2023-04-16T20:59:32.966Z,33.87
2023-04-16T21:02:00.781Z,30.40
2023-04-16T21:04:28.736Z,32.07
2023-04-16T21:06:56.699Z,32.83
2023-04-16T21:09:24.691Z,31.10
2023-04-16T21:11:52.405Z,31.33
2023-04-16T21:14:21.797Z,34.57
2023-04-16T21:16:49.521Z,30.47
2023-04-16T21:19:17.229Z,33.57
2023-04-16T21:21:45.502Z,38.00
2023-04-16T21:24:13.579Z,35.87
2023-04-16T21:26:41.328Z,36.80
2023-04-16T21:29:09.192Z,30.10
2023-04-16T21:31:38.686Z,35.93
2023-04-16T21:34:06.430Z,33.10
2023-04-16T21:36:34.092Z,34.93
2023-04-16T21:39:02.107Z,35.83
2023-04-16T21:41:30.117Z,36.07
2023-04-16T21:43:57.836Z,38.80
2023-04-16T21:46:26.313Z,37.60
2023-04-16T21:48:55.437Z,35.00
2023-04-16T21:51:29.228Z,32.67
2023-04-16T21:53:57.384Z,32.90
2023-04-16T21:56:25.788Z,38.37
2023-04-16T21:58:53.620Z,38.67
2023-04-16T22:01:21.949Z,36.00
2023-04-16T22:03:51.843Z,40.53
2023-04-16T22:06:21.714Z,36.23
2023-04-16T22:08:50.406Z,42.33
2023-04-16T22:11:18.125Z,38.03
2023-04-16T22:13:46.386Z,39.27
2023-04-16T22:16:15.564Z,41.27
2023-04-16T22:18:43.424Z,44.13
2023-04-16T22:21:11.401Z,39.90
2023-04-16T22:23:40.630Z,37.13
2023-04-16T22:26:09.007Z,48.73
2023-04-16T22:28:36.920Z,41.63
2023-04-16T22:31:04.703Z,40.40
2023-04-16T22:33:32.452Z,41.83
2023-04-16T22:36:00.882Z,37.50
2023-04-16T22:38:28.718Z,37.10
2023-04-16T22:40:57.984Z,36.57
2023-04-16T22:43:25.731Z,42.57
2023-04-16T22:46:02.542Z,32.13
2023-04-16T22:48:30.540Z,36.57
2023-04-16T22:50:58.460Z,37.50
2023-04-16T22:53:26.622Z,40.97
2023-04-16T22:55:55.017Z,37.70
2023-04-16T22:58:24.221Z,40.67
2023-04-16T23:00:52.825Z,37.73
2023-04-16T23:03:20.954Z,37.80
2023-04-16T23:05:49.493Z,35.23
2023-04-16T23:08:17.419Z,35.47
2023-04-16T23:10:45.195Z,43.93
2023-04-16T23:13:14.277Z,35.60
2023-04-16T23:15:43.713Z,38.63
2023-04-16T23:18:11.770Z,39.07
2023-04-16T23:20:39.726Z,42.57
2023-04-16T23:23:07.418Z,44.20
2023-04-16T23:25:35.896Z,41.00
2023-04-16T23:28:03.781Z,38.03
2023-04-16T23:30:31.429Z,40.70
2023-04-16T23:33:00.805Z,40.20
2023-04-16T23:35:28.890Z,40.57
2023-04-16T23:37:56.815Z,41.30
2023-04-16T23:40:24.500Z,39.83
2023-04-16T23:42:52.455Z,45.07
2023-04-16T23:45:20.250Z,38.70
2023-04-16T23:47:48.697Z,44.47
2023-04-16T23:50:18.230Z,43.93
2023-04-16T23:52:45.958Z,37.43
2023-04-16T23:55:13.715Z,39.43
2023-04-16T23:57:41.615Z,42.27
